sensor_id;sensor_type;location;lat;lon;timestamp;pressure;altitude;pressure_sealevel;temperature
15607;BMP180;7865;50.918;4.510;2022-12-18T00:01:50;102072.00;;;-7.10
15607;BMP180;7865;50.918;4.510;2022-12-18T00:06:52;102076.00;;;-7.20
15607;BMP180;7865;50.918;4.510;2022-12-18T00:11:54;102068.00;;;-7.30
15607;BMP180;7865;50.918;4.510;2022-12-18T00:16:57;102072.00;;;-7.40
15607;BMP180;7865;50.918;4.510;2022-12-18T00:22:02;102070.00;;;-7.50
15607;BMP180;7865;50.918;4.510;2022-12-18T00:27:04;102065.00;;;-7.60
15607;BMP180;7865;50.918;4.510;2022-12-18T00:32:06;102047.00;;;-7.60
15607;BMP180;7865;50.918;4.510;2022-12-18T00:37:08;102042.00;;;-7.60
15607;BMP180;7865;50.918;4.510;2022-12-18T00:42:10;102019.00;;;-7.50
15607;BMP180;7865;50.918;4.510;2022-12-18T00:47:30;102032.00;;;-7.30
15607;BMP180;7865;50.918;4.510;2022-12-18T00:52:32;102035.00;;;-7.20
15607;BMP180;7865;50.918;4.510;2022-12-18T00:57:34;102031.00;;;-7.00
15607;BMP180;7865;50.918;4.510;2022-12-18T01:02:38;102030.00;;;-7.00
15607;BMP180;7865;50.918;4.510;2022-12-18T01:07:41;102025.00;;;-6.90
15607;BMP180;7865;50.918;4.510;2022-12-18T01:12:43;102030.00;;;-6.90
15607;BMP180;7865;50.918;4.510;2022-12-18T01:17:45;102021.00;;;-6.90
15607;BMP180;7865;50.918;4.510;2022-12-18T01:22:47;102017.00;;;-6.90
15607;BMP180;7865;50.918;4.510;2022-12-18T01:27:49;102032.00;;;-6.90
15607;BMP180;7865;50.918;4.510;2022-12-18T01:32:51;102035.00;;;-6.90
15607;BMP180;7865;50.918;4.510;2022-12-18T01:37:56;102017.00;;;-7.00
15607;BMP180;7865;50.918;4.510;2022-12-18T01:42:58;102011.00;;;-7.10
15607;BMP180;7865;50.918;4.510;2022-12-18T01:48:03;102022.00;;;-7.10
15607;BMP180;7865;50.918;4.510;2022-12-18T01:53:12;102020.00;;;-7.00
15607;BMP180;7865;50.918;4.510;2022-12-18T01:58:16;102025.00;;;-7.10
15607;BMP180;7865;50.918;4.510;2022-12-18T02:03:18;102033.00;;;-7.20
15607;BMP180;7865;50.918;4.510;2022-12-18T02:13:56;102042.00;;;-7.40
15607;BMP180;7865;50.918;4.510;2022-12-18T02:19:04;102047.00;;;-7.60
15607;BMP180;7865;50.918;4.510;2022-12-18T02:29:32;102020.00;;;-7.80
15607;BMP180;7865;50.918;4.510;2022-12-18T02:34:38;102002.00;;;-7.90
15607;BMP180;7865;50.918;4.510;2022-12-18T02:39:47;101998.00;;;-8.00
15607;BMP180;7865;50.918;4.510;2022-12-18T02:44:51;101988.00;;;-8.10
15607;BMP180;7865;50.918;4.510;2022-12-18T03:00:48;101996.00;;;-7.90
15607;BMP180;7865;50.918;4.510;2022-12-18T03:05:58;101999.00;;;-7.90
15607;BMP180;7865;50.918;4.510;2022-12-18T03:11:11;102000.00;;;-7.90
15607;BMP180;7865;50.918;4.510;2022-12-18T03:16:24;101974.00;;;-8.00
15607;BMP180;7865;50.918;4.510;2022-12-18T03:21:41;101972.00;;;-7.90
15607;BMP180;7865;50.918;4.510;2022-12-18T03:26:46;101975.00;;;-7.80
15607;BMP180;7865;50.918;4.510;2022-12-18T03:31:54;101970.00;;;-7.70
15607;BMP180;7865;50.918;4.510;2022-12-18T03:36:57;101978.00;;;-7.60
15607;BMP180;7865;50.918;4.510;2022-12-18T03:42:11;101983.00;;;-7.60
15607;BMP180;7865;50.918;4.510;2022-12-18T03:47:34;101989.00;;;-7.60
15607;BMP180;7865;50.918;4.510;2022-12-18T03:52:49;101971.00;;;-7.80
15607;BMP180;7865;50.918;4.510;2022-12-18T03:57:53;101962.00;;;-7.90
15607;BMP180;7865;50.918;4.510;2022-12-18T04:02:59;101956.00;;;-8.00
15607;BMP180;7865;50.918;4.510;2022-12-18T04:08:09;101946.00;;;-8.10
15607;BMP180;7865;50.918;4.510;2022-12-18T04:13:32;101952.00;;;-8.20
15607;BMP180;7865;50.918;4.510;2022-12-18T04:18:36;101957.00;;;-8.40
15607;BMP180;7865;50.918;4.510;2022-12-18T04:23:38;101958.00;;;-8.50
15607;BMP180;7865;50.918;4.510;2022-12-18T04:28:41;101975.00;;;-8.60
15607;BMP180;7865;50.918;4.510;2022-12-18T04:33:44;101978.00;;;-8.70
15607;BMP180;7865;50.918;4.510;2022-12-18T04:38:47;101977.00;;;-8.70
15607;BMP180;7865;50.918;4.510;2022-12-18T04:43:52;101973.00;;;-8.80
15607;BMP180;7865;50.918;4.510;2022-12-18T04:48:53;101975.00;;;-8.80
15607;BMP180;7865;50.918;4.510;2022-12-18T04:53:55;101973.00;;;-8.90
15607;BMP180;7865;50.918;4.510;2022-12-18T04:58:57;101986.00;;;-8.80
15607;BMP180;7865;50.918;4.510;2022-12-18T05:03:59;101968.00;;;-8.80
15607;BMP180;7865;50.918;4.510;2022-12-18T05:09:01;101971.00;;;-8.80
15607;BMP180;7865;50.918;4.510;2022-12-18T05:14:03;101961.00;;;-8.80
15607;BMP180;7865;50.918;4.510;2022-12-18T05:19:05;101968.00;;;-8.80
15607;BMP180;7865;50.918;4.510;2022-12-18T05:24:07;101957.00;;;-8.80
15607;BMP180;7865;50.918;4.510;2022-12-18T05:29:09;101948.00;;;-8.80
15607;BMP180;7865;50.918;4.510;2022-12-18T05:34:14;101957.00;;;-8.70
15607;BMP180;7865;50.918;4.510;2022-12-18T05:39:16;101956.00;;;-8.60
15607;BMP180;7865;50.918;4.510;2022-12-18T05:44:18;101939.00;;;-8.50
15607;BMP180;7865;50.918;4.510;2022-12-18T05:49:20;101942.00;;;-8.30
15607;BMP180;7865;50.918;4.510;2022-12-18T05:54:22;101943.00;;;-8.10
15607;BMP180;7865;50.918;4.510;2022-12-18T05:59:24;101945.00;;;-8.00
15607;BMP180;7865;50.918;4.510;2022-12-18T06:04:27;101943.00;;;-8.00
15607;BMP180;7865;50.918;4.510;2022-12-18T06:09:30;101956.00;;;-7.90
15607;BMP180;7865;50.918;4.510;2022-12-18T06:14:32;101951.00;;;-7.90
15607;BMP180;7865;50.918;4.510;2022-12-18T06:19:33;101941.00;;;-7.90
15607;BMP180;7865;50.918;4.510;2022-12-18T06:24:36;101949.00;;;-7.80
15607;BMP180;7865;50.918;4.510;2022-12-18T06:29:37;101942.00;;;-7.90
15607;BMP180;7865;50.918;4.510;2022-12-18T06:34:39;101942.00;;;-7.90
15607;BMP180;7865;50.918;4.510;2022-12-18T06:39:41;101942.00;;;-7.90
15607;BMP180;7865;50.918;4.510;2022-12-18T06:44:43;101937.00;;;-7.90
15607;BMP180;7865;50.918;4.510;2022-12-18T06:49:45;101929.00;;;-7.90
15607;BMP180;7865;50.918;4.510;2022-12-18T06:54:47;101925.00;;;-7.90
15607;BMP180;7865;50.918;4.510;2022-12-18T06:59:49;101911.00;;;-7.90
15607;BMP180;7865;50.918;4.510;2022-12-18T07:04:51;101902.00;;;-7.90
15607;BMP180;7865;50.918;4.510;2022-12-18T07:09:53;101883.00;;;-7.70
15607;BMP180;7865;50.918;4.510;2022-12-18T07:14:54;101882.00;;;-7.50
15607;BMP180;7865;50.918;4.510;2022-12-18T07:19:56;101859.00;;;-7.30
15607;BMP180;7865;50.918;4.510;2022-12-18T07:24:58;101869.00;;;-7.30
15607;BMP180;7865;50.918;4.510;2022-12-18T07:30:00;101874.00;;;-7.30
15607;BMP180;7865;50.918;4.510;2022-12-18T07:35:02;101863.00;;;-7.30
15607;BMP180;7865;50.918;4.510;2022-12-18T07:40:04;101843.00;;;-7.40
15607;BMP180;7865;50.918;4.510;2022-12-18T07:45:07;101836.00;;;-7.40
15607;BMP180;7865;50.918;4.510;2022-12-18T07:50:10;101828.00;;;-7.40
15607;BMP180;7865;50.918;4.510;2022-12-18T07:55:12;101818.00;;;-7.30
15607;BMP180;7865;50.918;4.510;2022-12-18T08:00:14;101824.00;;;-7.30
15607;BMP180;7865;50.918;4.510;2022-12-18T08:05:16;101833.00;;;-7.20
15607;BMP180;7865;50.918;4.510;2022-12-18T08:10:19;101830.00;;;-7.10
15607;BMP180;7865;50.918;4.510;2022-12-18T08:15:21;101838.00;;;-7.00
15607;BMP180;7865;50.918;4.510;2022-12-18T08:20:23;101827.00;;;-6.80
15607;BMP180;7865;50.918;4.510;2022-12-18T08:25:25;101827.00;;;-6.60
15607;BMP180;7865;50.918;4.510;2022-12-18T08:30:27;101812.00;;;-6.30
15607;BMP180;7865;50.918;4.510;2022-12-18T08:35:29;101800.00;;;-6.10
15607;BMP180;7865;50.918;4.510;2022-12-18T08:40:38;101819.00;;;-5.80
15607;BMP180;7865;50.918;4.510;2022-12-18T08:45:40;101823.00;;;-5.50
15607;BMP180;7865;50.918;4.510;2022-12-18T08:50:42;101807.00;;;-5.10
15607;BMP180;7865;50.918;4.510;2022-12-18T08:55:44;101809.00;;;-4.80
15607;BMP180;7865;50.918;4.510;2022-12-18T09:00:50;101810.00;;;-4.60
15607;BMP180;7865;50.918;4.510;2022-12-18T09:05:52;101806.00;;;-4.30
15607;BMP180;7865;50.918;4.510;2022-12-18T09:10:54;101811.00;;;-4.10
15607;BMP180;7865;50.918;4.510;2022-12-18T09:15:56;101801.00;;;-3.90
15607;BMP180;7865;50.918;4.510;2022-12-18T09:20:58;101795.00;;;-3.70
15607;BMP180;7865;50.918;4.510;2022-12-18T09:26:00;101798.00;;;-3.60
15607;BMP180;7865;50.918;4.510;2022-12-18T09:31:08;101800.00;;;-3.50
15607;BMP180;7865;50.918;4.510;2022-12-18T09:36:13;101791.00;;;-3.30
15607;BMP180;7865;50.918;4.510;2022-12-18T09:41:36;101795.00;;;-3.20
15607;BMP180;7865;50.918;4.510;2022-12-18T09:46:46;101793.00;;;-3.10
15607;BMP180;7865;50.918;4.510;2022-12-18T09:51:53;101787.00;;;-2.90
15607;BMP180;7865;50.918;4.510;2022-12-18T09:56:56;101800.00;;;-2.80
15607;BMP180;7865;50.918;4.510;2022-12-18T10:01:58;101791.00;;;-2.60
15607;BMP180;7865;50.918;4.510;2022-12-18T10:07:09;101799.00;;;-2.50
15607;BMP180;7865;50.918;4.510;2022-12-18T10:12:21;101773.00;;;-2.30
15607;BMP180;7865;50.918;4.510;2022-12-18T10:17:47;101763.00;;;-2.20
15607;BMP180;7865;50.918;4.510;2022-12-18T10:28:18;101739.00;;;-2.00
15607;BMP180;7865;50.918;4.510;2022-12-18T10:33:24;101729.00;;;-2.00
15607;BMP180;7865;50.918;4.510;2022-12-18T10:38:31;101732.00;;;-1.90
15607;BMP180;7865;50.918;4.510;2022-12-18T10:43:36;101725.00;;;-1.80
15607;BMP180;7865;50.918;4.510;2022-12-18T10:48:51;101716.00;;;-1.70
15607;BMP180;7865;50.918;4.510;2022-12-18T10:54:16;101712.00;;;-1.50
15607;BMP180;7865;50.918;4.510;2022-12-18T10:59:18;101714.00;;;-1.30
15607;BMP180;7865;50.918;4.510;2022-12-18T11:04:27;101722.00;;;-1.10
15607;BMP180;7865;50.918;4.510;2022-12-18T11:09:31;101724.00;;;-0.90
15607;BMP180;7865;50.918;4.510;2022-12-18T11:14:42;101722.00;;;-0.80
15607;BMP180;7865;50.918;4.510;2022-12-18T11:20:02;101731.00;;;-0.70
15607;BMP180;7865;50.918;4.510;2022-12-18T11:25:25;101734.00;;;-0.70
15607;BMP180;7865;50.918;4.510;2022-12-18T11:30:36;101733.00;;;-0.60
15607;BMP180;7865;50.918;4.510;2022-12-18T11:41:00;101717.00;;;-0.60
15607;BMP180;7865;50.918;4.510;2022-12-18T11:46:07;101734.00;;;-0.60
15607;BMP180;7865;50.918;4.510;2022-12-18T11:51:30;101739.00;;;-0.60
15607;BMP180;7865;50.918;4.510;2022-12-18T11:56:36;101739.00;;;-0.50
15607;BMP180;7865;50.918;4.510;2022-12-18T12:01:49;101738.00;;;-0.50
15607;BMP180;7865;50.918;4.510;2022-12-18T12:07:14;101724.00;;;-0.30
15607;BMP180;7865;50.918;4.510;2022-12-18T12:17:47;101694.00;;;-0.10
15607;BMP180;7865;50.918;4.510;2022-12-18T12:23:01;101690.00;;;-0.10
15607;BMP180;7865;50.918;4.510;2022-12-18T12:39:05;101682.00;;;0.10
15607;BMP180;7865;50.918;4.510;2022-12-18T12:44:12;101683.00;;;0.20
15607;BMP180;7865;50.918;4.510;2022-12-18T12:49:22;101671.00;;;0.30
15607;BMP180;7865;50.918;4.510;2022-12-18T12:54:26;101660.00;;;0.40
15607;BMP180;7865;50.918;4.510;2022-12-18T13:04:59;101655.00;;;0.60
15607;BMP180;7865;50.918;4.510;2022-12-18T13:15:48;101653.00;;;0.70
15607;BMP180;7865;50.918;4.510;2022-12-18T13:36:33;101625.00;;;0.80
15607;BMP180;7865;50.918;4.510;2022-12-18T13:41:37;101617.00;;;0.70
15607;BMP180;7865;50.918;4.510;2022-12-18T13:46:44;101602.00;;;0.70
15607;BMP180;7865;50.918;4.510;2022-12-18T13:51:57;101601.00;;;0.70
15607;BMP180;7865;50.918;4.510;2022-12-18T13:56:59;101615.00;;;0.70
15607;BMP180;7865;50.918;4.510;2022-12-18T14:02:12;101623.00;;;0.70
15607;BMP180;7865;50.918;4.510;2022-12-18T14:07:25;101623.00;;;0.70
15607;BMP180;7865;50.918;4.510;2022-12-18T14:12:32;101613.00;;;0.70
15607;BMP180;7865;50.918;4.510;2022-12-18T14:28:33;101637.00;;;0.50
15607;BMP180;7865;50.918;4.510;2022-12-18T14:33:37;101626.00;;;0.40
15607;BMP180;7865;50.918;4.510;2022-12-18T14:38:40;101621.00;;;0.40
15607;BMP180;7865;50.918;4.510;2022-12-18T14:43:43;101598.00;;;0.30
15607;BMP180;7865;50.918;4.510;2022-12-18T14:48:47;101596.00;;;0.30
15607;BMP180;7865;50.918;4.510;2022-12-18T14:54:06;101587.00;;;0.20
15607;BMP180;7865;50.918;4.510;2022-12-18T14:59:21;101574.00;;;0.10
15607;BMP180;7865;50.918;4.510;2022-12-18T15:04:32;101572.00;;;0.10
15607;BMP180;7865;50.918;4.510;2022-12-18T15:09:37;101571.00;;;0.10
15607;BMP180;7865;50.918;4.510;2022-12-18T15:14:40;101573.00;;;0.00
15607;BMP180;7865;50.918;4.510;2022-12-18T15:19:44;101558.00;;;-0.10
15607;BMP180;7865;50.918;4.510;2022-12-18T15:24:47;101566.00;;;-0.10
15607;BMP180;7865;50.918;4.510;2022-12-18T15:35:21;101551.00;;;-0.10
15607;BMP180;7865;50.918;4.510;2022-12-18T15:40:24;101552.00;;;-0.20
15607;BMP180;7865;50.918;4.510;2022-12-18T15:45:27;101551.00;;;-0.20
15607;BMP180;7865;50.918;4.510;2022-12-18T15:50:29;101550.00;;;-0.20
15607;BMP180;7865;50.918;4.510;2022-12-18T15:55:31;101551.00;;;-0.10
15607;BMP180;7865;50.918;4.510;2022-12-18T16:00:58;101547.00;;;-0.10
15607;BMP180;7865;50.918;4.510;2022-12-18T16:06:01;101545.00;;;-0.10
15607;BMP180;7865;50.918;4.510;2022-12-18T16:11:05;101539.00;;;-0.10
15607;BMP180;7865;50.918;4.510;2022-12-18T16:16:10;101528.00;;;-0.10
15607;BMP180;7865;50.918;4.510;2022-12-18T16:21:12;101532.00;;;-0.10
15607;BMP180;7865;50.918;4.510;2022-12-18T16:26:14;101531.00;;;0.00
15607;BMP180;7865;50.918;4.510;2022-12-18T16:31:15;101538.00;;;0.00
15607;BMP180;7865;50.918;4.510;2022-12-18T16:36:17;101530.00;;;0.00
15607;BMP180;7865;50.918;4.510;2022-12-18T16:41:19;101518.00;;;0.00
15607;BMP180;7865;50.918;4.510;2022-12-18T16:46:33;101510.00;;;0.00
15607;BMP180;7865;50.918;4.510;2022-12-18T16:51:35;101516.00;;;0.10
15607;BMP180;7865;50.918;4.510;2022-12-18T16:56:38;101500.00;;;0.10
15607;BMP180;7865;50.918;4.510;2022-12-18T17:01:40;101494.00;;;0.10
15607;BMP180;7865;50.918;4.510;2022-12-18T17:06:44;101501.00;;;0.10
15607;BMP180;7865;50.918;4.510;2022-12-18T17:11:46;101500.00;;;0.20
15607;BMP180;7865;50.918;4.510;2022-12-18T17:16:48;101488.00;;;0.20
15607;BMP180;7865;50.918;4.510;2022-12-18T17:22:10;101494.00;;;0.20
15607;BMP180;7865;50.918;4.510;2022-12-18T17:27:12;101491.00;;;0.20
15607;BMP180;7865;50.918;4.510;2022-12-18T17:32:15;101495.00;;;0.30
15607;BMP180;7865;50.918;4.510;2022-12-18T17:37:17;101491.00;;;0.30
15607;BMP180;7865;50.918;4.510;2022-12-18T17:42:20;101492.00;;;0.30
15607;BMP180;7865;50.918;4.510;2022-12-18T17:47:22;101492.00;;;0.30
15607;BMP180;7865;50.918;4.510;2022-12-18T17:52:24;101500.00;;;0.30
15607;BMP180;7865;50.918;4.510;2022-12-18T17:57:26;101507.00;;;0.20
15607;BMP180;7865;50.918;4.510;2022-12-18T18:02:28;101506.00;;;0.10
15607;BMP180;7865;50.918;4.510;2022-12-18T18:07:31;101505.00;;;0.10
15607;BMP180;7865;50.918;4.510;2022-12-18T18:12:32;101502.00;;;0.10
15607;BMP180;7865;50.918;4.510;2022-12-18T18:17:53;101510.00;;;0.10
15607;BMP180;7865;50.918;4.510;2022-12-18T18:22:55;101506.00;;;0.10
15607;BMP180;7865;50.918;4.510;2022-12-18T18:27:57;101505.00;;;0.00
15607;BMP180;7865;50.918;4.510;2022-12-18T18:32:59;101510.00;;;0.00
15607;BMP180;7865;50.918;4.510;2022-12-18T18:38:01;101500.00;;;0.00
15607;BMP180;7865;50.918;4.510;2022-12-18T18:43:04;101502.00;;;0.00
15607;BMP180;7865;50.918;4.510;2022-12-18T18:48:07;101507.00;;;0.00
15607;BMP180;7865;50.918;4.510;2022-12-18T18:53:09;101512.00;;;0.00
15607;BMP180;7865;50.918;4.510;2022-12-18T18:58:11;101514.00;;;0.00
15607;BMP180;7865;50.918;4.510;2022-12-18T19:03:13;101524.00;;;0.00
15607;BMP180;7865;50.918;4.510;2022-12-18T19:08:15;101519.00;;;0.00
15607;BMP180;7865;50.918;4.510;2022-12-18T19:13:17;101524.00;;;0.00
15607;BMP180;7865;50.918;4.510;2022-12-18T19:18:22;101511.00;;;0.10
15607;BMP180;7865;50.918;4.510;2022-12-18T19:23:24;101510.00;;;0.10
15607;BMP180;7865;50.918;4.510;2022-12-18T19:28:26;101507.00;;;0.10
15607;BMP180;7865;50.918;4.510;2022-12-18T19:33:35;101515.00;;;0.20
15607;BMP180;7865;50.918;4.510;2022-12-18T19:38:46;101502.00;;;0.20
15607;BMP180;7865;50.918;4.510;2022-12-18T19:43:49;101495.00;;;0.30
15607;BMP180;7865;50.918;4.510;2022-12-18T19:48:51;101500.00;;;0.30
15607;BMP180;7865;50.918;4.510;2022-12-18T19:53:55;101493.00;;;0.30
15607;BMP180;7865;50.918;4.510;2022-12-18T19:59:02;101490.00;;;0.30
15607;BMP180;7865;50.918;4.510;2022-12-18T20:04:04;101478.00;;;0.40
15607;BMP180;7865;50.918;4.510;2022-12-18T20:09:08;101478.00;;;0.40
15607;BMP180;7865;50.918;4.510;2022-12-18T20:14:11;101470.00;;;0.40
15607;BMP180;7865;50.918;4.510;2022-12-18T20:19:13;101472.00;;;0.40
15607;BMP180;7865;50.918;4.510;2022-12-18T20:24:16;101462.00;;;0.40
15607;BMP180;7865;50.918;4.510;2022-12-18T20:29:18;101467.00;;;0.50
15607;BMP180;7865;50.918;4.510;2022-12-18T20:34:20;101461.00;;;0.50
15607;BMP180;7865;50.918;4.510;2022-12-18T20:39:23;101444.00;;;0.50
15607;BMP180;7865;50.918;4.510;2022-12-18T20:44:27;101441.00;;;0.60
15607;BMP180;7865;50.918;4.510;2022-12-18T20:49:29;101427.00;;;0.60
15607;BMP180;7865;50.918;4.510;2022-12-18T20:54:31;101418.00;;;0.70
15607;BMP180;7865;50.918;4.510;2022-12-18T20:59:33;101399.00;;;0.70
15607;BMP180;7865;50.918;4.510;2022-12-18T21:04:35;101398.00;;;0.70
15607;BMP180;7865;50.918;4.510;2022-12-18T21:09:36;101377.00;;;0.80
15607;BMP180;7865;50.918;4.510;2022-12-18T21:14:39;101370.00;;;0.80
15607;BMP180;7865;50.918;4.510;2022-12-18T21:19:41;101378.00;;;0.90
15607;BMP180;7865;50.918;4.510;2022-12-18T21:24:43;101355.00;;;0.90
15607;BMP180;7865;50.918;4.510;2022-12-18T21:29:45;101344.00;;;1.00
15607;BMP180;7865;50.918;4.510;2022-12-18T21:34:52;101344.00;;;1.00
15607;BMP180;7865;50.918;4.510;2022-12-18T21:39:54;101321.00;;;1.10
15607;BMP180;7865;50.918;4.510;2022-12-18T21:44:56;101326.00;;;1.10
15607;BMP180;7865;50.918;4.510;2022-12-18T21:49:57;101328.00;;;1.20
15607;BMP180;7865;50.918;4.510;2022-12-18T21:55:00;101304.00;;;1.20
15607;BMP180;7865;50.918;4.510;2022-12-18T22:00:10;101300.00;;;1.30
15607;BMP180;7865;50.918;4.510;2022-12-18T22:05:20;101285.00;;;1.30
15607;BMP180;7865;50.918;4.510;2022-12-18T22:10:21;101278.00;;;1.40
15607;BMP180;7865;50.918;4.510;2022-12-18T22:15:23;101298.00;;;1.40
15607;BMP180;7865;50.918;4.510;2022-12-18T22:20:25;101290.00;;;1.40
15607;BMP180;7865;50.918;4.510;2022-12-18T22:25:27;101283.00;;;1.50
15607;BMP180;7865;50.918;4.510;2022-12-18T22:30:29;101284.00;;;1.50
15607;BMP180;7865;50.918;4.510;2022-12-18T22:35:31;101263.00;;;1.60
15607;BMP180;7865;50.918;4.510;2022-12-18T22:40:33;101267.00;;;1.60
15607;BMP180;7865;50.918;4.510;2022-12-18T22:45:35;101253.00;;;1.60
15607;BMP180;7865;50.918;4.510;2022-12-18T22:50:39;101257.00;;;1.70
15607;BMP180;7865;50.918;4.510;2022-12-18T22:55:41;101246.00;;;1.80
15607;BMP180;7865;50.918;4.510;2022-12-18T23:00:43;101245.00;;;1.80
15607;BMP180;7865;50.918;4.510;2022-12-18T23:05:45;101225.00;;;1.90
15607;BMP180;7865;50.918;4.510;2022-12-18T23:10:51;101238.00;;;2.00
15607;BMP180;7865;50.918;4.510;2022-12-18T23:15:54;101236.00;;;2.10
15607;BMP180;7865;50.918;4.510;2022-12-18T23:20:56;101229.00;;;2.10
15607;BMP180;7865;50.918;4.510;2022-12-18T23:26:07;101230.00;;;2.20
15607;BMP180;7865;50.918;4.510;2022-12-18T23:31:15;101186.00;;;2.30
15607;BMP180;7865;50.918;4.510;2022-12-18T23:36:18;101164.00;;;2.40
15607;BMP180;7865;50.918;4.510;2022-12-18T23:41:22;101162.00;;;2.40
15607;BMP180;7865;50.918;4.510;2022-12-18T23:46:33;101166.00;;;2.50
15607;BMP180;7865;50.918;4.510;2022-12-18T23:51:35;101163.00;;;2.70
15607;BMP180;7865;50.918;4.510;2022-12-18T23:56:38;101168.00;;;2.80
